DLH2901 OMDB-EDDF
Flight info
| Callsign | DLH2901 |
|---|---|
| Flight time | N/A |
| Altitude | 36000 |
| Route | ANVIX7F ANVIX L223 TARDI N629 BOTAM Y855 LAKLU Q204 NALKI G652 TOKRA DCT ALROK DCT BOSOB/N0477F380 DCT ITRUX Y511 PMA Z712 WEJ L677 GESON Q777 LAGVI/N0469F400 Q777 RASDA DCT OTHON UN128 RDS UL609 MES DCT EVIVI DCT OKANA DCT NIVIS DCT BABIT DCT ARSIN DCT BUDEX DCT IPDUL DCT RAPET T170 VAGAB/N0432F240 T170 GAPLA T178 KERAX KERAX5A |
| Aircraft | A343/H-SDE2E3FGHIJ4J5M1RWXY/LB1D1 |
Departure
| Time | N/A |
|---|---|
| Airport | Dubai International Airport (OMDB) |
Arrival
| Time | 2026-05-03 22:53 |
|---|---|
| Airport | Frankfurt Main Airport (EDDF) |
| Time | Latitude | Longitude | Altitude | Speed | Heading |
|---|---|---|---|---|---|
| 2026-05-03 20:15 | 39.10304 | 25.26953 | 40088 ft | 454 kts | 329° |
| 2026-05-03 20:15 | 39.15750 | 25.22822 | 40102 ft | 454 kts | 330° |
| 2026-05-03 20:16 | 39.21218 | 25.18666 | 40098 ft | 458 kts | 330° |
| 2026-05-03 20:16 | 39.26715 | 25.14481 | 40100 ft | 459 kts | 330° |
| 2026-05-03 20:17 | 39.32185 | 25.10308 | 40105 ft | 457 kts | 330° |
| 2026-05-03 20:17 | 39.37672 | 25.06115 | 40103 ft | 456 kts | 329° |
| 2026-05-03 20:18 | 39.43126 | 25.01939 | 40114 ft | 458 kts | 330° |
| 2026-05-03 20:18 | 39.48611 | 24.97732 | 40114 ft | 460 kts | 330° |
| 2026-05-03 20:19 | 39.54081 | 24.93528 | 40129 ft | 457 kts | 330° |
| 2026-05-03 20:19 | 39.59539 | 24.89325 | 40114 ft | 454 kts | 330° |
| 2026-05-03 20:20 | 39.64977 | 24.85132 | 40114 ft | 456 kts | 330° |
| 2026-05-03 20:20 | 39.69562 | 24.81590 | 40120 ft | 459 kts | 330° |
| 2026-05-03 20:21 | 39.75019 | 24.77366 | 40122 ft | 457 kts | 330° |
| 2026-05-03 20:21 | 39.80491 | 24.73122 | 40132 ft | 455 kts | 330° |
| 2026-05-03 20:22 | 39.85916 | 24.68908 | 40130 ft | 456 kts | 330° |
| 2026-05-03 20:22 | 39.91381 | 24.64656 | 40133 ft | 459 kts | 330° |
| 2026-05-03 20:23 | 39.96860 | 24.60382 | 40132 ft | 459 kts | 330° |
| 2026-05-03 20:23 | 40.02322 | 24.56115 | 40136 ft | 457 kts | 330° |
| 2026-05-03 20:24 | 40.07756 | 24.51861 | 40139 ft | 458 kts | 330° |
| 2026-05-03 20:24 | 40.13210 | 24.47585 | 40140 ft | 459 kts | 330° |
| 2026-05-03 20:25 | 40.18716 | 24.43258 | 40137 ft | 459 kts | 330° |
| 2026-05-03 20:25 | 40.24182 | 24.38955 | 40137 ft | 458 kts | 330° |
| 2026-05-03 20:26 | 40.29609 | 24.34674 | 40130 ft | 459 kts | 330° |
| 2026-05-03 20:26 | 40.35120 | 24.30321 | 40147 ft | 460 kts | 330° |
| 2026-05-03 20:27 | 40.40596 | 24.25985 | 40145 ft | 461 kts | 330° |
| 2026-05-03 20:27 | 40.46083 | 24.21633 | 40133 ft | 461 kts | 330° |
| 2026-05-03 20:28 | 40.51563 | 24.17276 | 40132 ft | 462 kts | 330° |
| 2026-05-03 20:28 | 40.57073 | 24.12889 | 40146 ft | 462 kts | 330° |
| 2026-05-03 20:29 | 40.62558 | 24.08512 | 40149 ft | 461 kts | 330° |
| 2026-05-03 20:29 | 40.68067 | 24.04108 | 40142 ft | 461 kts | 330° |
| 2026-05-03 20:30 | 40.73538 | 23.99726 | 40143 ft | 461 kts | 330° |
| 2026-05-03 20:30 | 40.79001 | 23.95341 | 40143 ft | 461 kts | 330° |
| 2026-05-03 20:31 | 40.84479 | 23.90936 | 40136 ft | 461 kts | 330° |
| 2026-05-03 20:31 | 40.89948 | 23.86530 | 40140 ft | 461 kts | 330° |
| 2026-05-03 20:32 | 40.95435 | 23.82101 | 40140 ft | 462 kts | 330° |
| 2026-05-03 20:32 | 41.00919 | 23.77665 | 40141 ft | 462 kts | 330° |
| 2026-05-03 20:33 | 41.06409 | 23.73215 | 40130 ft | 461 kts | 330° |
| 2026-05-03 20:33 | 41.11833 | 23.68809 | 40138 ft | 460 kts | 330° |
| 2026-05-03 20:34 | 41.17313 | 23.64351 | 40147 ft | 461 kts | 330° |
| 2026-05-03 20:34 | 41.22752 | 23.59917 | 40147 ft | 461 kts | 330° |
| 2026-05-03 20:35 | 41.28243 | 23.55431 | 40147 ft | 461 kts | 330° |
| 2026-05-03 20:35 | 41.33683 | 23.50979 | 40148 ft | 461 kts | 330° |
| 2026-05-03 20:36 | 41.39137 | 23.46519 | 40143 ft | 460 kts | 332° |
| 2026-05-03 20:36 | 41.44807 | 23.42613 | 40131 ft | 457 kts | 335° |
| 2026-05-03 20:37 | 41.50496 | 23.38884 | 40153 ft | 456 kts | 336° |
| 2026-05-03 20:37 | 41.56182 | 23.35187 | 40150 ft | 455 kts | 336° |
| 2026-05-03 20:38 | 41.61887 | 23.31466 | 40146 ft | 456 kts | 336° |
| 2026-05-03 20:38 | 41.67582 | 23.27736 | 40154 ft | 458 kts | 336° |
| 2026-05-03 20:39 | 41.73298 | 23.23981 | 40157 ft | 458 kts | 336° |
| 2026-05-03 20:39 | 41.79005 | 23.20225 | 40164 ft | 458 kts | 336° |
| 2026-05-03 20:40 | 41.84751 | 23.16436 | 40163 ft | 458 kts | 336° |
| 2026-05-03 20:40 | 41.90475 | 23.12653 | 40165 ft | 459 kts | 336° |
| 2026-05-03 20:41 | 41.96193 | 23.08868 | 40176 ft | 458 kts | 336° |
| 2026-05-03 20:41 | 42.01895 | 23.05084 | 40181 ft | 457 kts | 336° |
| 2026-05-03 20:42 | 42.07607 | 23.01286 | 40182 ft | 455 kts | 336° |
| 2026-05-03 20:42 | 42.13256 | 22.97523 | 40186 ft | 454 kts | 336° |
| 2026-05-03 20:43 | 42.18895 | 22.93759 | 40190 ft | 453 kts | 336° |
| 2026-05-03 20:43 | 42.24577 | 22.89959 | 40189 ft | 453 kts | 336° |
| 2026-05-03 20:44 | 42.30219 | 22.86179 | 40191 ft | 454 kts | 336° |
| 2026-05-03 20:44 | 42.35859 | 22.82392 | 40205 ft | 454 kts | 336° |
| 2026-05-03 20:45 | 42.41501 | 22.78597 | 40210 ft | 454 kts | 336° |
| 2026-05-03 20:45 | 42.47146 | 22.74790 | 40214 ft | 453 kts | 336° |
| 2026-05-03 20:46 | 42.52823 | 22.70955 | 40207 ft | 453 kts | 336° |
| 2026-05-03 20:46 | 42.58468 | 22.67134 | 40218 ft | 453 kts | 336° |
| 2026-05-03 20:47 | 42.64099 | 22.63315 | 40205 ft | 453 kts | 336° |
| 2026-05-03 20:47 | 42.69724 | 22.59491 | 40220 ft | 453 kts | 336° |
| 2026-05-03 20:48 | 42.75386 | 22.55636 | 40215 ft | 454 kts | 336° |
| 2026-05-03 20:48 | 42.81018 | 22.51792 | 40211 ft | 455 kts | 336° |
| 2026-05-03 20:49 | 42.86438 | 22.47308 | 40209 ft | 454 kts | 326° |
| 2026-05-03 20:49 | 42.91456 | 22.42111 | 40202 ft | 453 kts | 325° |
| 2026-05-03 20:50 | 42.96392 | 22.36807 | 40204 ft | 454 kts | 324° |
| 2026-05-03 20:50 | 43.01390 | 22.31413 | 40200 ft | 458 kts | 324° |
| 2026-05-03 20:51 | 43.06366 | 22.26048 | 40189 ft | 454 kts | 324° |
| 2026-05-03 20:51 | 43.11298 | 22.20731 | 40195 ft | 451 kts | 324° |
| 2026-05-03 20:52 | 43.16223 | 22.15417 | 40185 ft | 450 kts | 324° |
| 2026-05-03 20:52 | 43.21138 | 22.10103 | 40188 ft | 451 kts | 324° |
| 2026-05-03 20:53 | 43.26063 | 22.04764 | 40183 ft | 451 kts | 324° |
| 2026-05-03 20:53 | 43.30979 | 21.99423 | 40182 ft | 450 kts | 324° |
| 2026-05-03 20:54 | 43.35903 | 21.94064 | 40184 ft | 450 kts | 324° |
| 2026-05-03 20:54 | 43.43243 | 21.86053 | 40185 ft | 450 kts | 324° |
| 2026-05-03 20:55 | 43.48136 | 21.80699 | 40185 ft | 451 kts | 324° |
| 2026-05-03 20:55 | 43.53041 | 21.75319 | 40185 ft | 452 kts | 324° |
| 2026-05-03 20:56 | 43.57978 | 21.69892 | 40185 ft | 452 kts | 324° |
| 2026-05-03 20:56 | 43.62897 | 21.64474 | 40186 ft | 452 kts | 324° |
| 2026-05-03 20:57 | 43.67801 | 21.59060 | 40186 ft | 451 kts | 324° |
| 2026-05-03 20:57 | 43.72693 | 21.53648 | 40181 ft | 452 kts | 324° |
| 2026-05-03 20:58 | 43.77608 | 21.48200 | 40182 ft | 453 kts | 324° |
| 2026-05-03 20:58 | 43.82511 | 21.42753 | 40180 ft | 453 kts | 324° |
| 2026-05-03 20:59 | 43.87407 | 21.37300 | 40178 ft | 453 kts | 324° |
| 2026-05-03 20:59 | 43.92302 | 21.31837 | 40180 ft | 452 kts | 324° |
| 2026-05-03 21:00 | 43.95595 | 21.28156 | 40183 ft | 452 kts | 324° |
| 2026-05-03 21:00 | 44.02123 | 21.20843 | 40187 ft | 454 kts | 324° |
| 2026-05-03 21:01 | 44.07022 | 21.15340 | 40177 ft | 454 kts | 324° |
| 2026-05-03 21:01 | 44.11940 | 21.09804 | 40179 ft | 453 kts | 324° |
| 2026-05-03 21:02 | 44.16853 | 21.04262 | 40178 ft | 453 kts | 324° |
| 2026-05-03 21:02 | 44.21740 | 20.98736 | 40177 ft | 453 kts | 324° |
| 2026-05-03 21:03 | 44.26636 | 20.93188 | 40149 ft | 454 kts | 324° |
| 2026-05-03 21:03 | 44.31513 | 20.87649 | 40172 ft | 452 kts | 323° |
| 2026-05-03 21:04 | 44.36384 | 20.82104 | 40174 ft | 451 kts | 323° |
| 2026-05-03 21:04 | 44.41243 | 20.76561 | 40170 ft | 451 kts | 323° |
| 2026-05-03 21:05 | 44.46102 | 20.71007 | 40180 ft | 451 kts | 324° |
| 2026-05-03 21:05 | 44.50969 | 20.65430 | 40167 ft | 452 kts | 323° |
| 2026-05-03 21:06 | 44.55014 | 20.60785 | 40166 ft | 452 kts | 323° |
| 2026-05-03 21:06 | 44.59865 | 20.55204 | 40166 ft | 452 kts | 323° |
| 2026-05-03 21:07 | 44.64708 | 20.49620 | 40161 ft | 452 kts | 323° |
| 2026-05-03 21:07 | 44.69586 | 20.43983 | 40152 ft | 451 kts | 323° |
| 2026-05-03 21:08 | 44.74415 | 20.38389 | 40163 ft | 450 kts | 323° |
| 2026-05-03 21:08 | 44.79250 | 20.32776 | 40147 ft | 450 kts | 323° |
| 2026-05-03 21:09 | 44.84067 | 20.27172 | 40165 ft | 450 kts | 323° |
| 2026-05-03 21:09 | 44.88908 | 20.21528 | 40183 ft | 451 kts | 323° |
| 2026-05-03 21:10 | 44.93728 | 20.15894 | 40181 ft | 449 kts | 323° |
| 2026-05-03 21:10 | 44.98551 | 20.10245 | 40185 ft | 449 kts | 323° |
| 2026-05-03 21:11 | 45.03345 | 20.04616 | 40182 ft | 449 kts | 323° |
| 2026-05-03 21:11 | 45.08128 | 19.98989 | 40180 ft | 449 kts | 323° |
| 2026-05-03 21:12 | 45.12912 | 19.93348 | 40166 ft | 448 kts | 323° |
| 2026-05-03 21:12 | 45.17698 | 19.87690 | 40176 ft | 447 kts | 323° |
| 2026-05-03 21:13 | 45.22462 | 19.82047 | 40185 ft | 447 kts | 323° |
| 2026-05-03 21:13 | 45.27210 | 19.76394 | 40172 ft | 447 kts | 322° |
| 2026-05-03 21:14 | 45.31897 | 19.70565 | 40172 ft | 448 kts | 321° |
| 2026-05-03 21:14 | 45.36569 | 19.64667 | 40168 ft | 446 kts | 321° |
| 2026-05-03 21:15 | 45.41210 | 19.58828 | 40173 ft | 446 kts | 321° |
| 2026-05-03 21:15 | 45.45868 | 19.52981 | 40171 ft | 445 kts | 321° |
| 2026-05-03 21:16 | 45.50505 | 19.47156 | 40178 ft | 446 kts | 321° |
| 2026-05-03 21:16 | 45.55171 | 19.41281 | 40168 ft | 447 kts | 321° |
| 2026-05-03 21:17 | 45.59035 | 19.36404 | 40162 ft | 447 kts | 321° |
| 2026-05-03 21:17 | 45.64477 | 19.29518 | 40162 ft | 447 kts | 321° |
| 2026-05-03 21:18 | 45.69118 | 19.23630 | 40164 ft | 447 kts | 321° |
| 2026-05-03 21:18 | 45.73798 | 19.17681 | 40165 ft | 447 kts | 321° |
| 2026-05-03 21:19 | 45.78436 | 19.11769 | 40157 ft | 447 kts | 321° |
| 2026-05-03 21:19 | 45.83056 | 19.05869 | 40156 ft | 447 kts | 321° |
| 2026-05-03 21:20 | 45.87685 | 18.99942 | 40157 ft | 447 kts | 321° |
| 2026-05-03 21:20 | 45.92337 | 18.93972 | 40156 ft | 447 kts | 321° |
| 2026-05-03 21:21 | 45.96973 | 18.88039 | 40150 ft | 446 kts | 321° |
| 2026-05-03 21:21 | 46.01594 | 18.82136 | 40143 ft | 446 kts | 321° |
| 2026-05-03 21:22 | 46.06235 | 18.76194 | 40162 ft | 446 kts | 321° |
| 2026-05-03 21:22 | 46.10887 | 18.70222 | 40158 ft | 446 kts | 321° |
| 2026-05-03 21:23 | 46.15512 | 18.64267 | 40144 ft | 446 kts | 321° |
| 2026-05-03 21:23 | 46.20131 | 18.58306 | 40148 ft | 446 kts | 321° |
| 2026-05-03 21:24 | 46.24724 | 18.52364 | 40145 ft | 445 kts | 320° |
| 2026-05-03 21:24 | 46.29350 | 18.46366 | 40153 ft | 445 kts | 320° |
| 2026-05-03 21:25 | 46.33958 | 18.40378 | 40134 ft | 446 kts | 320° |
| 2026-05-03 21:25 | 46.38572 | 18.34368 | 40122 ft | 446 kts | 320° |
| 2026-05-03 21:26 | 46.43175 | 18.28357 | 40133 ft | 446 kts | 320° |
| 2026-05-03 21:26 | 46.47795 | 18.22309 | 40131 ft | 445 kts | 320° |
| 2026-05-03 21:27 | 46.52378 | 18.16297 | 40128 ft | 445 kts | 320° |
| 2026-05-03 21:27 | 46.56981 | 18.10243 | 40129 ft | 445 kts | 320° |
| 2026-05-03 21:28 | 46.61572 | 18.04191 | 40115 ft | 446 kts | 319° |
| 2026-05-03 21:28 | 46.66155 | 17.98136 | 40124 ft | 446 kts | 319° |
| 2026-05-03 21:29 | 46.70735 | 17.92068 | 40120 ft | 446 kts | 319° |
| 2026-05-03 21:29 | 46.75343 | 17.85950 | 40121 ft | 446 kts | 319° |
| 2026-05-03 21:30 | 46.79917 | 17.79862 | 40119 ft | 446 kts | 319° |
| 2026-05-03 21:30 | 46.84497 | 17.73752 | 40122 ft | 447 kts | 319° |
| 2026-05-03 21:31 | 46.89097 | 17.67600 | 40117 ft | 448 kts | 319° |
| 2026-05-03 21:31 | 46.93689 | 17.61442 | 40113 ft | 448 kts | 319° |
| 2026-05-03 21:32 | 46.98261 | 17.55296 | 40113 ft | 448 kts | 319° |
| 2026-05-03 21:32 | 47.02834 | 17.49137 | 40105 ft | 448 kts | 319° |
| 2026-05-03 21:33 | 47.07429 | 17.42932 | 40101 ft | 449 kts | 318° |
| 2026-05-03 21:33 | 47.12034 | 17.36697 | 40102 ft | 449 kts | 318° |
| 2026-05-03 21:34 | 47.16614 | 17.30480 | 40099 ft | 449 kts | 318° |
| 2026-05-03 21:34 | 47.21202 | 17.24238 | 40101 ft | 449 kts | 318° |
| 2026-05-03 21:35 | 47.25765 | 17.18015 | 40092 ft | 449 kts | 317° |
| 2026-05-03 21:35 | 47.30354 | 17.11739 | 40095 ft | 451 kts | 317° |
| 2026-05-03 21:36 | 47.34933 | 17.05464 | 40092 ft | 451 kts | 317° |
| 2026-05-03 21:36 | 47.39543 | 16.99128 | 40091 ft | 451 kts | 317° |
| 2026-05-03 21:37 | 47.44124 | 16.92818 | 40089 ft | 451 kts | 317° |
| 2026-05-03 21:37 | 47.48706 | 16.86491 | 40082 ft | 451 kts | 317° |
| 2026-05-03 21:38 | 47.53283 | 16.80154 | 40083 ft | 451 kts | 317° |
| 2026-05-03 21:38 | 47.57720 | 16.73632 | 40085 ft | 451 kts | 313° |
| 2026-05-03 21:39 | 47.61937 | 16.66680 | 40086 ft | 452 kts | 311° |
| 2026-05-03 21:39 | 47.66074 | 16.59719 | 40077 ft | 451 kts | 311° |
| 2026-05-03 21:40 | 47.70216 | 16.52716 | 40078 ft | 452 kts | 311° |
| 2026-05-03 21:40 | 47.74350 | 16.45720 | 40076 ft | 452 kts | 311° |
| 2026-05-03 21:41 | 47.78483 | 16.38715 | 40066 ft | 451 kts | 311° |
| 2026-05-03 21:41 | 47.82630 | 16.31671 | 40066 ft | 450 kts | 311° |
| 2026-05-03 21:42 | 47.86737 | 16.24677 | 40055 ft | 450 kts | 311° |
| 2026-05-03 21:42 | 47.90871 | 16.17619 | 40062 ft | 451 kts | 311° |
| 2026-05-03 21:43 | 47.95004 | 16.10542 | 40054 ft | 452 kts | 311° |
| 2026-05-03 21:43 | 47.99126 | 16.03464 | 40051 ft | 453 kts | 311° |
| 2026-05-03 21:44 | 48.03249 | 15.96367 | 40046 ft | 453 kts | 311° |
| 2026-05-03 21:44 | 48.07371 | 15.89251 | 40036 ft | 453 kts | 311° |
| 2026-05-03 21:45 | 48.11481 | 15.82138 | 40031 ft | 452 kts | 310° |
| 2026-05-03 21:45 | 48.15607 | 15.74978 | 40032 ft | 452 kts | 310° |
| 2026-05-03 21:46 | 48.19698 | 15.67859 | 40020 ft | 451 kts | 310° |
| 2026-05-03 21:46 | 48.23774 | 15.60750 | 40027 ft | 451 kts | 310° |
| 2026-05-03 21:47 | 48.27857 | 15.53609 | 40015 ft | 452 kts | 310° |
| 2026-05-03 21:47 | 48.31944 | 15.46440 | 40015 ft | 452 kts | 310° |
| 2026-05-03 21:48 | 48.36049 | 15.39221 | 40009 ft | 452 kts | 310° |
| 2026-05-03 21:48 | 48.40115 | 15.32050 | 40005 ft | 452 kts | 310° |
| 2026-05-03 21:49 | 48.44180 | 15.24863 | 40005 ft | 452 kts | 310° |
| 2026-05-03 21:49 | 48.48273 | 15.17606 | 39999 ft | 452 kts | 310° |
| 2026-05-03 21:50 | 48.52334 | 15.10387 | 39999 ft | 452 kts | 310° |
| 2026-05-03 21:50 | 48.56399 | 15.03139 | 39994 ft | 453 kts | 309° |
| 2026-05-03 21:51 | 48.60465 | 14.95871 | 39994 ft | 453 kts | 309° |
| 2026-05-03 21:51 | 48.64515 | 14.88612 | 39983 ft | 453 kts | 309° |
| 2026-05-03 21:52 | 48.68573 | 14.81317 | 39985 ft | 454 kts | 309° |
| 2026-05-03 21:52 | 48.72640 | 14.73988 | 39978 ft | 454 kts | 309° |
| 2026-05-03 21:53 | 48.76036 | 14.67852 | 39978 ft | 454 kts | 309° |
| 2026-05-03 21:53 | 48.80077 | 14.60531 | 39972 ft | 454 kts | 309° |
| 2026-05-03 21:54 | 48.84148 | 14.53137 | 39973 ft | 455 kts | 309° |
| 2026-05-03 21:54 | 48.88203 | 14.45749 | 39975 ft | 456 kts | 309° |
| 2026-05-03 21:55 | 48.92251 | 14.38357 | 39978 ft | 456 kts | 308° |
| 2026-05-03 21:55 | 48.96778 | 14.31664 | 39976 ft | 457 kts | 321° |
| 2026-05-03 21:56 | 49.01895 | 14.25900 | 39973 ft | 458 kts | 323° |
| 2026-05-03 21:56 | 49.07094 | 14.20293 | 39971 ft | 459 kts | 323° |
| 2026-05-03 21:57 | 49.12325 | 14.14657 | 39972 ft | 461 kts | 323° |
| 2026-05-03 21:57 | 49.17551 | 14.08985 | 39971 ft | 462 kts | 323° |
| 2026-05-03 21:58 | 49.22797 | 14.03258 | 39971 ft | 462 kts | 323° |
| 2026-05-03 21:58 | 49.28012 | 13.97545 | 39971 ft | 462 kts | 323° |
| 2026-05-03 21:59 | 49.33224 | 13.91820 | 39979 ft | 462 kts | 323° |
| 2026-05-03 21:59 | 49.38440 | 13.86076 | 39971 ft | 463 kts | 322° |
| 2026-05-03 22:00 | 49.43283 | 13.79590 | 39970 ft | 460 kts | 310° |
| 2026-05-03 22:00 | 49.47432 | 13.72147 | 39968 ft | 460 kts | 308° |
| 2026-05-03 22:01 | 49.51472 | 13.64522 | 39963 ft | 460 kts | 307° |
| 2026-05-03 22:01 | 49.55509 | 13.56841 | 39971 ft | 460 kts | 307° |
| 2026-05-03 22:02 | 49.59517 | 13.49230 | 39965 ft | 458 kts | 307° |
| 2026-05-03 22:02 | 49.63541 | 13.41587 | 39967 ft | 458 kts | 307° |
| 2026-05-03 22:03 | 49.67547 | 13.33962 | 39969 ft | 458 kts | 307° |
| 2026-05-03 22:03 | 49.71550 | 13.26320 | 39968 ft | 458 kts | 307° |
| 2026-05-03 22:04 | 49.75546 | 13.18671 | 39968 ft | 458 kts | 307° |
| 2026-05-03 22:04 | 49.79557 | 13.10967 | 39964 ft | 458 kts | 307° |
| 2026-05-03 22:05 | 49.83536 | 13.03303 | 39963 ft | 458 kts | 307° |
| 2026-05-03 22:05 | 49.87520 | 12.95607 | 39971 ft | 458 kts | 307° |
| 2026-05-03 22:06 | 49.91499 | 12.87897 | 39971 ft | 458 kts | 307° |
| 2026-05-03 22:06 | 49.95471 | 12.80179 | 39984 ft | 458 kts | 306° |
| 2026-05-03 22:07 | 49.99464 | 12.72397 | 39985 ft | 459 kts | 306° |
| 2026-05-03 22:07 | 50.03435 | 12.64637 | 39988 ft | 459 kts | 306° |
| 2026-05-03 22:08 | 50.07388 | 12.56888 | 39988 ft | 459 kts | 306° |
| 2026-05-03 22:08 | 50.09361 | 12.53012 | 39870 ft | 459 kts | 306° |
| 2026-05-03 22:08 | 50.11354 | 12.49090 | 39788 ft | 457 kts | 306° |
| 2026-05-03 22:09 | 50.13331 | 12.45194 | 39900 ft | 458 kts | 306° |
| 2026-05-03 22:09 | 50.15311 | 12.41285 | 39976 ft | 460 kts | 306° |
| 2026-05-03 22:10 | 50.20227 | 12.28599 | 39984 ft | 455 kts | 289° |
| 2026-05-03 22:10 | 50.22469 | 12.19333 | 39986 ft | 454 kts | 287° |
| 2026-05-03 22:11 | 50.24572 | 12.10050 | 40013 ft | 454 kts | 287° |
| 2026-05-03 22:11 | 50.26663 | 12.00763 | 40023 ft | 454 kts | 287° |
| 2026-05-03 22:12 | 50.28794 | 11.91449 | 40019 ft | 454 kts | 287° |
| 2026-05-03 22:12 | 50.30915 | 11.82178 | 40020 ft | 454 kts | 287° |
| 2026-05-03 22:13 | 50.33044 | 11.72841 | 40021 ft | 454 kts | 287° |
| 2026-05-03 22:13 | 50.35152 | 11.63549 | 40016 ft | 454 kts | 287° |
| 2026-05-03 22:14 | 50.37268 | 11.54175 | 40014 ft | 453 kts | 287° |
| 2026-05-03 22:14 | 50.39355 | 11.44890 | 40005 ft | 453 kts | 287° |
| 2026-05-03 22:15 | 50.41433 | 11.35600 | 39998 ft | 453 kts | 287° |
| 2026-05-03 22:15 | 50.43520 | 11.26249 | 39983 ft | 453 kts | 287° |
| 2026-05-03 22:16 | 50.45581 | 11.16934 | 39996 ft | 453 kts | 286° |
| 2026-05-03 22:16 | 50.47624 | 11.07650 | 39984 ft | 450 kts | 286° |
| 2026-05-03 22:17 | 50.49659 | 10.98369 | 39987 ft | 449 kts | 286° |
| 2026-05-03 22:17 | 50.51697 | 10.89040 | 39989 ft | 449 kts | 286° |
| 2026-05-03 22:18 | 50.52756 | 10.84175 | 39986 ft | 449 kts | 286° |
| 2026-05-03 22:18 | 50.54606 | 10.75772 | 39805 ft | 449 kts | 287° |
| 2026-05-03 22:18 | 50.55662 | 10.71126 | 39575 ft | 448 kts | 287° |
| 2026-05-03 22:19 | 50.56711 | 10.66539 | 39347 ft | 448 kts | 287° |
| 2026-05-03 22:19 | 50.57767 | 10.61914 | 39112 ft | 448 kts | 287° |
| 2026-05-03 22:19 | 50.58807 | 10.57342 | 38890 ft | 447 kts | 287° |
| 2026-05-03 22:19 | 50.59861 | 10.52706 | 38399 ft | 449 kts | 286° |
| 2026-05-03 22:20 | 50.60912 | 10.48061 | 37698 ft | 450 kts | 286° |
| 2026-05-03 22:20 | 50.61955 | 10.43433 | 37020 ft | 451 kts | 286° |
| 2026-05-03 22:20 | 50.62910 | 10.38773 | 36365 ft | 449 kts | 281° |
| 2026-05-03 22:20 | 50.63489 | 10.33950 | 35718 ft | 446 kts | 272° |
| 2026-05-03 22:21 | 50.63600 | 10.29078 | 35134 ft | 443 kts | 263° |
| 2026-05-03 22:21 | 50.63228 | 10.24314 | 34425 ft | 441 kts | 255° |
| 2026-05-03 22:21 | 50.62361 | 10.19665 | 33380 ft | 444 kts | 245° |
| 2026-05-03 22:21 | 50.61044 | 10.15227 | 32301 ft | 446 kts | 240° |
| 2026-05-03 22:22 | 50.59601 | 10.10935 | 31146 ft | 439 kts | 239° |
| 2026-05-03 22:22 | 50.58140 | 10.06788 | 30062 ft | 437 kts | 239° |
| 2026-05-03 22:22 | 50.56631 | 10.02573 | 28897 ft | 439 kts | 239° |
| 2026-05-03 22:22 | 50.55180 | 9.98457 | 28466 ft | 430 kts | 241° |
| 2026-05-03 22:23 | 50.53973 | 9.94146 | 27745 ft | 429 kts | 248° |
| 2026-05-03 22:23 | 50.53026 | 9.89667 | 26669 ft | 431 kts | 250° |
| 2026-05-03 22:23 | 50.52179 | 9.85218 | 25561 ft | 426 kts | 251° |
| 2026-05-03 22:23 | 50.51379 | 9.80766 | 24408 ft | 420 kts | 252° |
| 2026-05-03 22:24 | 50.50607 | 9.76377 | 23225 ft | 413 kts | 251° |
| 2026-05-03 22:24 | 50.49850 | 9.72050 | 21880 ft | 404 kts | 252° |
| 2026-05-03 22:24 | 50.49140 | 9.67859 | 20628 ft | 396 kts | 252° |
| 2026-05-03 22:24 | 50.48435 | 9.63691 | 19385 ft | 389 kts | 252° |
| 2026-05-03 22:25 | 50.47738 | 9.59613 | 18198 ft | 382 kts | 253° |
| 2026-05-03 22:25 | 50.47051 | 9.55656 | 16889 ft | 377 kts | 252° |
| 2026-05-03 22:25 | 50.46313 | 9.51728 | 15623 ft | 371 kts | 251° |
| 2026-05-03 22:25 | 50.45571 | 9.47855 | 14392 ft | 366 kts | 252° |
| 2026-05-03 22:26 | 50.44852 | 9.44092 | 13147 ft | 360 kts | 252° |
| 2026-05-03 22:26 | 50.44140 | 9.40345 | 11865 ft | 352 kts | 251° |
| 2026-05-03 22:26 | 50.43450 | 9.36718 | 10866 ft | 339 kts | 251° |
| 2026-05-03 22:26 | 50.42797 | 9.33280 | 10268 ft | 317 kts | 251° |
| 2026-05-03 22:27 | 50.42204 | 9.30150 | 9995 ft | 284 kts | 250° |
| 2026-05-03 22:27 | 50.41651 | 9.27254 | 9746 ft | 271 kts | 250° |
| 2026-05-03 22:27 | 50.41117 | 9.24466 | 9479 ft | 262 kts | 251° |
| 2026-05-03 22:27 | 50.40538 | 9.21780 | 9222 ft | 262 kts | 247° |
| 2026-05-03 22:28 | 50.39893 | 9.19096 | 8960 ft | 259 kts | 247° |
| 2026-05-03 22:28 | 50.39264 | 9.16467 | 8711 ft | 260 kts | 248° |
| 2026-05-03 22:28 | 50.38640 | 9.13813 | 8461 ft | 258 kts | 248° |
| 2026-05-03 22:28 | 50.38018 | 9.11173 | 8209 ft | 258 kts | 248° |
| 2026-05-03 22:29 | 50.37399 | 9.08531 | 7969 ft | 256 kts | 248° |
| 2026-05-03 22:29 | 50.36794 | 9.05941 | 7743 ft | 256 kts | 248° |
| 2026-05-03 22:29 | 50.36184 | 9.03326 | 7503 ft | 254 kts | 248° |
| 2026-05-03 22:29 | 50.35577 | 9.00720 | 7277 ft | 255 kts | 248° |
| 2026-05-03 22:30 | 50.34972 | 8.98129 | 7018 ft | 252 kts | 248° |
| 2026-05-03 22:30 | 50.34370 | 8.95555 | 6849 ft | 247 kts | 248° |
| 2026-05-03 22:30 | 50.33794 | 8.93094 | 6724 ft | 239 kts | 248° |
| 2026-05-03 22:30 | 50.33229 | 8.90677 | 6596 ft | 231 kts | 248° |
| 2026-05-03 22:31 | 50.32641 | 8.88368 | 6446 ft | 224 kts | 243° |
| 2026-05-03 22:31 | 50.31840 | 8.86327 | 6208 ft | 221 kts | 231° |
| 2026-05-03 22:31 | 50.30748 | 8.84645 | 5954 ft | 219 kts | 218° |
| 2026-05-03 22:31 | 50.29455 | 8.83458 | 5750 ft | 218 kts | 206° |
| 2026-05-03 22:32 | 50.27993 | 8.82778 | 5496 ft | 220 kts | 193° |
| 2026-05-03 22:32 | 50.26447 | 8.82677 | 5295 ft | 225 kts | 180° |
| 2026-05-03 22:32 | 50.24906 | 8.83183 | 5170 ft | 232 kts | 166° |
| 2026-05-03 22:32 | 50.23441 | 8.84325 | 5045 ft | 239 kts | 150° |
| 2026-05-03 22:33 | 50.22200 | 8.86064 | 4989 ft | 244 kts | 135° |
| 2026-05-03 22:33 | 50.21293 | 8.88348 | 4983 ft | 251 kts | 115° |
| 2026-05-03 22:33 | 50.20970 | 8.91035 | 4980 ft | 256 kts | 90° |
| 2026-05-03 22:33 | 50.21364 | 8.93746 | 4983 ft | 258 kts | 65° |
| 2026-05-03 22:34 | 50.22413 | 8.95976 | 4980 ft | 257 kts | 39° |
| 2026-05-03 22:34 | 50.23905 | 8.97474 | 4983 ft | 254 kts | 26° |
| 2026-05-03 22:34 | 50.25364 | 8.99079 | 4977 ft | 258 kts | 43° |
| 2026-05-03 22:34 | 50.26351 | 9.01379 | 4978 ft | 259 kts | 70° |
| 2026-05-03 22:35 | 50.26653 | 9.04122 | 4979 ft | 255 kts | 95° |
| 2026-05-03 22:35 | 50.26271 | 9.06791 | 4979 ft | 251 kts | 113° |
| 2026-05-03 22:35 | 50.25802 | 9.09436 | 4976 ft | 255 kts | 101° |
| 2026-05-03 22:35 | 50.25886 | 9.12200 | 4976 ft | 258 kts | 76° |
| 2026-05-03 22:36 | 50.26677 | 9.14728 | 4978 ft | 258 kts | 50° |
| 2026-05-03 22:36 | 50.27998 | 9.16548 | 4980 ft | 255 kts | 28° |
| 2026-05-03 22:36 | 50.29451 | 9.18172 | 4978 ft | 258 kts | 42° |
| 2026-05-03 22:36 | 50.30412 | 9.20478 | 4978 ft | 258 kts | 72° |
| 2026-05-03 22:37 | 50.30679 | 9.23237 | 4977 ft | 255 kts | 90° |
| 2026-05-03 22:37 | 50.30765 | 9.26042 | 4975 ft | 261 kts | 86° |
| 2026-05-03 22:37 | 50.31195 | 9.28911 | 4990 ft | 287 kts | 74° |
| 2026-05-03 22:37 | 50.31867 | 9.31939 | 4989 ft | 296 kts | 72° |
| 2026-05-03 22:38 | 50.32568 | 9.34946 | 4983 ft | 295 kts | 71° |
| 2026-05-03 22:38 | 50.32979 | 9.36937 | 4976 ft | 285 kts | 78° |
| 2026-05-03 22:38 | 50.33062 | 9.39908 | 4976 ft | 263 kts | 106° |
| 2026-05-03 22:38 | 50.32386 | 9.42437 | 4978 ft | 250 kts | 132° |
| 2026-05-03 22:39 | 50.31092 | 9.44314 | 4994 ft | 260 kts | 156° |
| 2026-05-03 22:39 | 50.28827 | 9.45197 | 4984 ft | 250 kts | 188° |
| 2026-05-03 22:39 | 50.27685 | 9.44867 | 4984 ft | 246 kts | 203° |
| 2026-05-03 22:39 | 50.26239 | 9.43563 | 4984 ft | 242 kts | 223° |
| 2026-05-03 22:40 | 50.25221 | 9.41463 | 4986 ft | 244 kts | 243° |
| 2026-05-03 22:40 | 50.24575 | 9.38991 | 4977 ft | 245 kts | 248° |
| 2026-05-03 22:40 | 50.24009 | 9.36512 | 4983 ft | 244 kts | 249° |
| 2026-05-03 22:40 | 50.23452 | 9.33992 | 4983 ft | 245 kts | 250° |
| 2026-05-03 22:41 | 50.22896 | 9.31469 | 4977 ft | 246 kts | 250° |
| 2026-05-03 22:41 | 50.22331 | 9.28934 | 4985 ft | 246 kts | 249° |
| 2026-05-03 22:41 | 50.21954 | 9.27276 | 4986 ft | 244 kts | 249° |
| 2026-05-03 22:42 | 50.21893 | 9.27007 | 4986 ft | 244 kts | 249° |
| 2026-05-03 22:43 | 50.21652 | 9.25962 | 4977 ft | 243 kts | 249° |
| 2026-05-03 22:43 | 50.21607 | 9.25767 | 4979 ft | 243 kts | 249° |
| 2026-05-03 22:43 | 50.21517 | 9.25377 | 4981 ft | 243 kts | 249° |
| 2026-05-03 22:43 | 50.20978 | 9.23044 | 4983 ft | 244 kts | 249° |
| 2026-05-03 22:44 | 50.20400 | 9.20545 | 4991 ft | 245 kts | 248° |
| 2026-05-03 22:44 | 50.19821 | 9.18053 | 4978 ft | 246 kts | 249° |
| 2026-05-03 22:44 | 50.19234 | 9.15566 | 4973 ft | 237 kts | 247° |
| 2026-05-03 22:44 | 50.18664 | 9.13230 | 4970 ft | 223 kts | 251° |
| 2026-05-03 22:45 | 50.18204 | 9.11014 | 4968 ft | 210 kts | 251° |
| 2026-05-03 22:45 | 50.17765 | 9.08878 | 4974 ft | 205 kts | 251° |
| 2026-05-03 22:45 | 50.17312 | 9.06780 | 4979 ft | 205 kts | 250° |
| 2026-05-03 22:45 | 50.16831 | 9.04673 | 4979 ft | 205 kts | 249° |
| 2026-05-03 22:46 | 50.16341 | 9.02577 | 4979 ft | 205 kts | 249° |
| 2026-05-03 22:46 | 50.15848 | 9.00506 | 4980 ft | 205 kts | 249° |
| 2026-05-03 22:46 | 50.15329 | 8.98395 | 4980 ft | 205 kts | 248° |
| 2026-05-03 22:46 | 50.14828 | 8.96325 | 4981 ft | 205 kts | 249° |
| 2026-05-03 22:47 | 50.14333 | 8.94232 | 4981 ft | 206 kts | 249° |
| 2026-05-03 22:47 | 50.13843 | 8.92165 | 4984 ft | 206 kts | 249° |
| 2026-05-03 22:47 | 50.13342 | 8.90066 | 4984 ft | 205 kts | 249° |
| 2026-05-03 22:47 | 50.12844 | 8.87979 | 4986 ft | 205 kts | 249° |
| 2026-05-03 22:48 | 50.12351 | 8.85909 | 4975 ft | 206 kts | 249° |
| 2026-05-03 22:48 | 50.11851 | 8.83809 | 4804 ft | 206 kts | 249° |
| 2026-05-03 22:48 | 50.11349 | 8.81706 | 4507 ft | 208 kts | 249° |
| 2026-05-03 22:48 | 50.10840 | 8.79571 | 4174 ft | 211 kts | 249° |
| 2026-05-03 22:49 | 50.10324 | 8.77406 | 3834 ft | 214 kts | 249° |
| 2026-05-03 22:49 | 50.09809 | 8.75248 | 3515 ft | 216 kts | 250° |
| 2026-05-03 22:49 | 50.09285 | 8.73055 | 3209 ft | 217 kts | 249° |
| 2026-05-03 22:49 | 50.08766 | 8.70881 | 2928 ft | 207 kts | 250° |
| 2026-05-03 22:50 | 50.08281 | 8.68850 | 2606 ft | 196 kts | 250° |
| 2026-05-03 22:50 | 50.07817 | 8.66907 | 2339 ft | 183 kts | 249° |
| 2026-05-03 22:50 | 50.07391 | 8.65125 | 2088 ft | 165 kts | 249° |
| 2026-05-03 22:50 | 50.07016 | 8.63554 | 1851 ft | 149 kts | 249° |
| 2026-05-03 22:51 | 50.06673 | 8.62119 | 1648 ft | 135 kts | 249° |
| 2026-05-03 22:51 | 50.06359 | 8.60802 | 1459 ft | 125 kts | 248° |
| 2026-05-03 22:51 | 50.06055 | 8.59534 | 1290 ft | 126 kts | 249° |
| 2026-05-03 22:51 | 50.05748 | 8.58251 | 1109 ft | 129 kts | 249° |
| 2026-05-03 22:52 | 50.05431 | 8.56924 | 918 ft | 131 kts | 249° |
| 2026-05-03 22:52 | 50.05111 | 8.55611 | 690 ft | 128 kts | 247° |
| 2026-05-03 22:52 | 50.04800 | 8.54281 | 510 ft | 129 kts | 249° |
| 2026-05-03 22:52 | 50.04480 | 8.52995 | 398 ft | 128 kts | 255° |
| 2026-05-03 22:53 | 50.04194 | 8.51773 | 357 ft | 92 kts | 251° |
| 2026-05-03 22:53 | 50.04062 | 8.51205 | 357 ft | 8 kts | 244° |
| 2026-05-03 22:53 | 50.04056 | 8.51189 | 357 ft | 1 kts | 244° |
| 2026-05-03 22:53 | 50.04049 | 8.51165 | 358 ft | 3 kts | 244° |
| 2026-05-03 22:54 | 50.04031 | 8.51124 | 354 ft | 6 kts | 232° |
| 2026-05-03 22:54 | 50.03998 | 8.51065 | 360 ft | 8 kts | 228° |
| 2026-05-03 22:54 | 50.03953 | 8.50987 | 360 ft | 11 kts | 227° |
| 2026-05-03 22:54 | 50.03894 | 8.50900 | 358 ft | 12 kts | 220° |
| 2026-05-03 22:55 | 50.03827 | 8.50848 | 356 ft | 8 kts | 181° |
| 2026-05-03 22:55 | 50.03799 | 8.50881 | 357 ft | 5 kts | 128° |
| 2026-05-03 22:55 | 50.03791 | 8.50934 | 358 ft | 6 kts | 97° |
| 2026-05-03 22:55 | 50.03804 | 8.50981 | 356 ft | 4 kts | 50° |
| 2026-05-03 22:56 | 50.03815 | 8.51023 | 357 ft | 6 kts | 73° |